sensor_id;sensor_type;location;lat;lon;timestamp;P1;durP1;ratioP1;P2;durP2;ratioP2
12867;SDS011;33517;49.866;8.320;2022-11-11T00:00:22;5.57;;;1.80;;
12867;SDS011;33517;49.866;8.320;2022-11-11T00:03:14;4.13;;;1.73;;
12867;SDS011;33517;49.866;8.320;2022-11-11T00:06:07;1.55;;;1.45;;
12867;SDS011;33517;49.866;8.320;2022-11-11T00:09:01;1.83;;;1.73;;
12867;SDS011;33517;49.866;8.320;2022-11-11T00:11:53;1.60;;;1.50;;
12867;SDS011;33517;49.866;8.320;2022-11-11T00:14:44;1.05;;;1.00;;
12867;SDS011;33517;49.866;8.320;2022-11-11T00:17:38;3.25;;;2.20;;
12867;SDS011;33517;49.866;8.320;2022-11-11T00:20:47;1.25;;;1.23;;
12867;SDS011;33517;49.866;8.320;2022-11-11T00:23:56;2.88;;;1.13;;
12867;SDS011;33517;49.866;8.320;2022-11-11T00:27:06;4.05;;;0.98;;
12867;SDS011;33517;49.866;8.320;2022-11-11T00:29:58;1.48;;;1.38;;
12867;SDS011;33517;49.866;8.320;2022-11-11T00:32:52;0.50;;;0.50;;
12867;SDS011;33517;49.866;8.320;2022-11-11T00:35:43;1.10;;;0.98;;
12867;SDS011;33517;49.866;8.320;2022-11-11T00:38:44;0.98;;;0.98;;
12867;SDS011;33517;49.866;8.320;2022-11-11T00:41:36;1.38;;;1.30;;
12867;SDS011;33517;49.866;8.320;2022-11-11T00:44:28;0.52;;;0.52;;
12867;SDS011;33517;49.866;8.320;2022-11-11T00:47:20;0.80;;;0.80;;
12867;SDS011;33517;49.866;8.320;2022-11-11T00:50:31;1.52;;;1.42;;
12867;SDS011;33517;49.866;8.320;2022-11-11T00:53:40;1.23;;;0.90;;
12867;SDS011;33517;49.866;8.320;2022-11-11T00:56:32;1.55;;;1.45;;
12867;SDS011;33517;49.866;8.320;2022-11-11T00:59:25;2.28;;;2.00;;
12867;SDS011;33517;49.866;8.320;2022-11-11T01:02:17;2.05;;;1.08;;
12867;SDS011;33517;49.866;8.320;2022-11-11T01:05:09;1.80;;;1.27;;
12867;SDS011;33517;49.866;8.320;2022-11-11T01:08:02;1.00;;;1.00;;
12867;SDS011;33517;49.866;8.320;2022-11-11T01:10:54;6.00;;;2.38;;
12867;SDS011;33517;49.866;8.320;2022-11-11T01:13:46;2.15;;;1.45;;
12867;SDS011;33517;49.866;8.320;2022-11-11T01:16:38;1.25;;;0.90;;
12867;SDS011;33517;49.866;8.320;2022-11-11T01:19:30;2.80;;;1.42;;
12867;SDS011;33517;49.866;8.320;2022-11-11T01:22:22;1.13;;;0.93;;
12867;SDS011;33517;49.866;8.320;2022-11-11T01:25:15;1.73;;;1.50;;
12867;SDS011;33517;49.866;8.320;2022-11-11T01:28:07;1.85;;;1.48;;
12867;SDS011;33517;49.866;8.320;2022-11-11T01:31:00;0.90;;;0.73;;
12867;SDS011;33517;49.866;8.320;2022-11-11T01:33:53;0.63;;;0.63;;
12867;SDS011;33517;49.866;8.320;2022-11-11T01:36:45;0.93;;;0.85;;
12867;SDS011;33517;49.866;8.320;2022-11-11T01:39:37;1.08;;;0.98;;
12867;SDS011;33517;49.866;8.320;2022-11-11T01:42:30;1.67;;;0.90;;
12867;SDS011;33517;49.866;8.320;2022-11-11T01:48:38;0.43;;;0.43;;
12867;SDS011;33517;49.866;8.320;2022-11-11T01:51:56;3.63;;;1.10;;
12867;SDS011;33517;49.866;8.320;2022-11-11T01:54:53;2.60;;;1.45;;
12867;SDS011;33517;49.866;8.320;2022-11-11T01:57:52;0.65;;;0.65;;
12867;SDS011;33517;49.866;8.320;2022-11-11T02:00:47;0.30;;;0.30;;
12867;SDS011;33517;49.866;8.320;2022-11-11T02:03:40;2.65;;;1.58;;
12867;SDS011;33517;49.866;8.320;2022-11-11T02:06:52;1.45;;;1.05;;
12867;SDS011;33517;49.866;8.320;2022-11-11T02:09:45;2.88;;;1.63;;
12867;SDS011;33517;49.866;8.320;2022-11-11T02:12:38;0.82;;;0.82;;
12867;SDS011;33517;49.866;8.320;2022-11-11T02:15:49;1.17;;;0.85;;
12867;SDS011;33517;49.866;8.320;2022-11-11T02:18:41;0.32;;;0.32;;
12867;SDS011;33517;49.866;8.320;2022-11-11T02:21:34;1.25;;;1.10;;
12867;SDS011;33517;49.866;8.320;2022-11-11T02:24:33;2.13;;;1.38;;
12867;SDS011;33517;49.866;8.320;2022-11-11T02:27:26;0.85;;;0.68;;
12867;SDS011;33517;49.866;8.320;2022-11-11T02:30:21;0.65;;;0.65;;
12867;SDS011;33517;49.866;8.320;2022-11-11T02:33:13;0.30;;;0.30;;
12867;SDS011;33517;49.866;8.320;2022-11-11T02:36:05;0.50;;;0.35;;
12867;SDS011;33517;49.866;8.320;2022-11-11T02:39:00;0.60;;;0.60;;
12867;SDS011;33517;49.866;8.320;2022-11-11T02:41:54;1.45;;;0.43;;
12867;SDS011;33517;49.866;8.320;2022-11-11T02:44:49;1.30;;;1.00;;
12867;SDS011;33517;49.866;8.320;2022-11-11T02:47:48;1.00;;;0.85;;
12867;SDS011;33517;49.866;8.320;2022-11-11T02:50:39;0.43;;;0.30;;
12867;SDS011;33517;49.866;8.320;2022-11-11T02:53:31;0.30;;;0.30;;
12867;SDS011;33517;49.866;8.320;2022-11-11T02:56:23;0.80;;;0.80;;
12867;SDS011;33517;49.866;8.320;2022-11-11T02:59:30;0.60;;;0.60;;
12867;SDS011;33517;49.866;8.320;2022-11-11T03:02:22;0.40;;;0.30;;
12867;SDS011;33517;49.866;8.320;2022-11-11T03:05:16;0.35;;;0.35;;
12867;SDS011;33517;49.866;8.320;2022-11-11T03:08:08;0.52;;;0.52;;
12867;SDS011;33517;49.866;8.320;2022-11-11T03:11:00;0.35;;;0.35;;
12867;SDS011;33517;49.866;8.320;2022-11-11T03:13:52;1.45;;;0.45;;
12867;SDS011;33517;49.866;8.320;2022-11-11T03:16:45;0.45;;;0.45;;
12867;SDS011;33517;49.866;8.320;2022-11-11T03:19:55;0.73;;;0.73;;
12867;SDS011;33517;49.866;8.320;2022-11-11T03:23:08;0.68;;;0.63;;
12867;SDS011;33517;49.866;8.320;2022-11-11T03:26:01;0.70;;;0.60;;
12867;SDS011;33517;49.866;8.320;2022-11-11T03:28:52;0.75;;;0.75;;
12867;SDS011;33517;49.866;8.320;2022-11-11T03:31:46;0.75;;;0.65;;
12867;SDS011;33517;49.866;8.320;2022-11-11T03:34:38;0.75;;;0.45;;
12867;SDS011;33517;49.866;8.320;2022-11-11T03:37:29;0.65;;;0.65;;
12867;SDS011;33517;49.866;8.320;2022-11-11T03:40:48;0.73;;;0.73;;
12867;SDS011;33517;49.866;8.320;2022-11-11T03:43:41;0.50;;;0.50;;
12867;SDS011;33517;49.866;8.320;2022-11-11T03:46:33;1.02;;;0.40;;
12867;SDS011;33517;49.866;8.320;2022-11-11T03:49:26;0.40;;;0.40;;
12867;SDS011;33517;49.866;8.320;2022-11-11T03:52:18;1.00;;;0.60;;
12867;SDS011;33517;49.866;8.320;2022-11-11T03:55:10;0.65;;;0.65;;
12867;SDS011;33517;49.866;8.320;2022-11-11T03:58:02;0.60;;;0.60;;
12867;SDS011;33517;49.866;8.320;2022-11-11T04:00:53;0.45;;;0.45;;
12867;SDS011;33517;49.866;8.320;2022-11-11T04:03:45;0.80;;;0.68;;
12867;SDS011;33517;49.866;8.320;2022-11-11T04:06:56;0.40;;;0.30;;
12867;SDS011;33517;49.866;8.320;2022-11-11T04:10:06;1.45;;;1.10;;
12867;SDS011;33517;49.866;8.320;2022-11-11T04:13:12;0.52;;;0.52;;
12867;SDS011;33517;49.866;8.320;2022-11-11T04:16:21;1.20;;;0.77;;
12867;SDS011;33517;49.866;8.320;2022-11-11T04:19:13;1.48;;;1.38;;
12867;SDS011;33517;49.866;8.320;2022-11-11T04:22:24;0.55;;;0.45;;
12867;SDS011;33517;49.866;8.320;2022-11-11T04:25:16;2.35;;;1.08;;
12867;SDS011;33517;49.866;8.320;2022-11-11T04:28:25;0.85;;;0.68;;
12867;SDS011;33517;49.866;8.320;2022-11-11T04:31:34;0.50;;;0.50;;
12867;SDS011;33517;49.866;8.320;2022-11-11T04:34:47;0.75;;;0.57;;
12867;SDS011;33517;49.866;8.320;2022-11-11T04:37:45;0.57;;;0.57;;
12867;SDS011;33517;49.866;8.320;2022-11-11T04:40:39;0.52;;;0.52;;
12867;SDS011;33517;49.866;8.320;2022-11-11T04:43:48;0.63;;;0.63;;
12867;SDS011;33517;49.866;8.320;2022-11-11T04:46:58;0.60;;;0.60;;
12867;SDS011;33517;49.866;8.320;2022-11-11T04:49:50;0.60;;;0.57;;
12867;SDS011;33517;49.866;8.320;2022-11-11T04:52:41;0.63;;;0.63;;
12867;SDS011;33517;49.866;8.320;2022-11-11T04:55:35;0.22;;;0.22;;
12867;SDS011;33517;49.866;8.320;2022-11-11T04:58:44;0.60;;;0.60;;
12867;SDS011;33517;49.866;8.320;2022-11-11T05:01:37;0.50;;;0.50;;
12867;SDS011;33517;49.866;8.320;2022-11-11T05:04:46;0.73;;;0.73;;
12867;SDS011;33517;49.866;8.320;2022-11-11T05:07:38;0.57;;;0.57;;
12867;SDS011;33517;49.866;8.320;2022-11-11T05:10:49;0.63;;;0.60;;
12867;SDS011;33517;49.866;8.320;2022-11-11T05:13:40;0.57;;;0.57;;
12867;SDS011;33517;49.866;8.320;2022-11-11T05:16:51;1.33;;;0.70;;
12867;SDS011;33517;49.866;8.320;2022-11-11T05:20:01;0.50;;;0.47;;
12867;SDS011;33517;49.866;8.320;2022-11-11T05:23:10;0.60;;;0.60;;
12867;SDS011;33517;49.866;8.320;2022-11-11T05:26:03;0.75;;;0.55;;
12867;SDS011;33517;49.866;8.320;2022-11-11T05:28:54;0.35;;;0.35;;
12867;SDS011;33517;49.866;8.320;2022-11-11T05:31:46;0.88;;;0.70;;
12867;SDS011;33517;49.866;8.320;2022-11-11T05:34:38;0.70;;;0.70;;
12867;SDS011;33517;49.866;8.320;2022-11-11T05:37:30;0.40;;;0.40;;
12867;SDS011;33517;49.866;8.320;2022-11-11T05:40:21;0.82;;;0.75;;
12867;SDS011;33517;49.866;8.320;2022-11-11T05:43:15;0.77;;;0.70;;
12867;SDS011;33517;49.866;8.320;2022-11-11T05:46:09;1.05;;;0.95;;
12867;SDS011;33517;49.866;8.320;2022-11-11T05:49:01;2.95;;;2.67;;
12867;SDS011;33517;49.866;8.320;2022-11-11T05:52:08;1.65;;;1.40;;
12867;SDS011;33517;49.866;8.320;2022-11-11T05:55:01;0.68;;;0.68;;
12867;SDS011;33517;49.866;8.320;2022-11-11T05:57:53;1.35;;;1.25;;
12867;SDS011;33517;49.866;8.320;2022-11-11T06:00:46;0.55;;;0.55;;
12867;SDS011;33517;49.866;8.320;2022-11-11T06:03:38;1.05;;;0.73;;
12867;SDS011;33517;49.866;8.320;2022-11-11T06:06:30;0.63;;;0.63;;
12867;SDS011;33517;49.866;8.320;2022-11-11T06:09:22;1.25;;;0.95;;
12867;SDS011;33517;49.866;8.320;2022-11-11T06:12:14;1.70;;;1.20;;
12867;SDS011;33517;49.866;8.320;2022-11-11T06:15:06;0.60;;;0.60;;
12867;SDS011;33517;49.866;8.320;2022-11-11T06:18:00;0.68;;;0.68;;
12867;SDS011;33517;49.866;8.320;2022-11-11T06:20:52;1.30;;;1.23;;
12867;SDS011;33517;49.866;8.320;2022-11-11T06:23:44;1.00;;;1.00;;
12867;SDS011;33517;49.866;8.320;2022-11-11T06:26:36;1.73;;;1.58;;
12867;SDS011;33517;49.866;8.320;2022-11-11T06:29:28;1.00;;;0.75;;
12867;SDS011;33517;49.866;8.320;2022-11-11T06:32:20;0.55;;;0.55;;
12867;SDS011;33517;49.866;8.320;2022-11-11T06:35:13;1.58;;;1.48;;
12867;SDS011;33517;49.866;8.320;2022-11-11T06:38:05;0.30;;;0.30;;
12867;SDS011;33517;49.866;8.320;2022-11-11T06:40:58;0.73;;;0.73;;
12867;SDS011;33517;49.866;8.320;2022-11-11T06:43:49;0.88;;;0.77;;
12867;SDS011;33517;49.866;8.320;2022-11-11T06:46:41;0.52;;;0.52;;
12867;SDS011;33517;49.866;8.320;2022-11-11T06:49:33;0.47;;;0.45;;
12867;SDS011;33517;49.866;8.320;2022-11-11T06:52:26;2.35;;;1.20;;
12867;SDS011;33517;49.866;8.320;2022-11-11T06:55:19;1.23;;;1.00;;
12867;SDS011;33517;49.866;8.320;2022-11-11T06:58:11;1.33;;;0.60;;
12867;SDS011;33517;49.866;8.320;2022-11-11T07:01:06;3.13;;;0.85;;
12867;SDS011;33517;49.866;8.320;2022-11-11T07:03:58;1.13;;;1.02;;
12867;SDS011;33517;49.866;8.320;2022-11-11T07:06:50;1.35;;;1.20;;
12867;SDS011;33517;49.866;8.320;2022-11-11T07:09:43;0.77;;;0.77;;
12867;SDS011;33517;49.866;8.320;2022-11-11T07:12:35;1.58;;;1.00;;
12867;SDS011;33517;49.866;8.320;2022-11-11T07:15:27;1.08;;;0.65;;
12867;SDS011;33517;49.866;8.320;2022-11-11T07:18:19;1.05;;;0.75;;
12867;SDS011;33517;49.866;8.320;2022-11-11T07:21:11;1.20;;;1.10;;
12867;SDS011;33517;49.866;8.320;2022-11-11T07:24:03;1.48;;;0.70;;
12867;SDS011;33517;49.866;8.320;2022-11-11T07:26:56;1.20;;;1.10;;
12867;SDS011;33517;49.866;8.320;2022-11-11T07:29:48;0.70;;;0.68;;
12867;SDS011;33517;49.866;8.320;2022-11-11T07:32:43;0.80;;;0.80;;
12867;SDS011;33517;49.866;8.320;2022-11-11T07:35:36;1.52;;;0.95;;
12867;SDS011;33517;49.866;8.320;2022-11-11T07:38:28;2.75;;;1.30;;
12867;SDS011;33517;49.866;8.320;2022-11-11T07:41:19;2.67;;;1.08;;
12867;SDS011;33517;49.866;8.320;2022-11-11T07:44:13;6.57;;;1.50;;
12867;SDS011;33517;49.866;8.320;2022-11-11T07:47:04;1.35;;;1.25;;
12867;SDS011;33517;49.866;8.320;2022-11-11T07:49:56;2.38;;;1.35;;
12867;SDS011;33517;49.866;8.320;2022-11-11T07:52:48;3.67;;;1.23;;
12867;SDS011;33517;49.866;8.320;2022-11-11T07:55:40;1.52;;;1.42;;
12867;SDS011;33517;49.866;8.320;2022-11-11T07:58:32;1.67;;;1.58;;
12867;SDS011;33517;49.866;8.320;2022-11-11T08:01:25;1.23;;;1.13;;
12867;SDS011;33517;49.866;8.320;2022-11-11T08:04:17;1.83;;;0.93;;
12867;SDS011;33517;49.866;8.320;2022-11-11T08:07:09;2.03;;;1.27;;
12867;SDS011;33517;49.866;8.320;2022-11-11T08:10:01;1.25;;;1.20;;
12867;SDS011;33517;49.866;8.320;2022-11-11T08:12:53;6.68;;;1.42;;
12867;SDS011;33517;49.866;8.320;2022-11-11T08:16:03;1.58;;;1.48;;
12867;SDS011;33517;49.866;8.320;2022-11-11T08:18:57;1.77;;;1.58;;
12867;SDS011;33517;49.866;8.320;2022-11-11T08:21:50;5.03;;;1.85;;
12867;SDS011;33517;49.866;8.320;2022-11-11T08:24:42;3.53;;;1.80;;
12867;SDS011;33517;49.866;8.320;2022-11-11T08:27:34;1.77;;;1.50;;
12867;SDS011;33517;49.866;8.320;2022-11-11T08:30:26;2.65;;;1.77;;
12867;SDS011;33517;49.866;8.320;2022-11-11T08:33:18;2.17;;;1.13;;
12867;SDS011;33517;49.866;8.320;2022-11-11T08:36:12;1.30;;;1.20;;
12867;SDS011;33517;49.866;8.320;2022-11-11T08:39:04;1.08;;;1.08;;
12867;SDS011;33517;49.866;8.320;2022-11-11T08:41:57;1.90;;;1.40;;
12867;SDS011;33517;49.866;8.320;2022-11-11T08:44:49;0.65;;;0.65;;
12867;SDS011;33517;49.866;8.320;2022-11-11T08:47:43;8.63;;;2.03;;
12867;SDS011;33517;49.866;8.320;2022-11-11T08:50:35;1.70;;;1.17;;
12867;SDS011;33517;49.866;8.320;2022-11-11T08:53:29;5.45;;;2.25;;
12867;SDS011;33517;49.866;8.320;2022-11-11T08:56:21;1.88;;;1.38;;
12867;SDS011;33517;49.866;8.320;2022-11-11T08:59:13;1.38;;;0.95;;
12867;SDS011;33517;49.866;8.320;2022-11-11T09:02:05;2.05;;;1.10;;
12867;SDS011;33517;49.866;8.320;2022-11-11T09:05:01;1.55;;;1.10;;
12867;SDS011;33517;49.866;8.320;2022-11-11T09:07:53;4.63;;;1.45;;
12867;SDS011;33517;49.866;8.320;2022-11-11T09:10:46;2.67;;;1.17;;
12867;SDS011;33517;49.866;8.320;2022-11-11T09:13:38;3.10;;;1.85;;
12867;SDS011;33517;49.866;8.320;2022-11-11T09:16:31;1.85;;;1.50;;
12867;SDS011;33517;49.866;8.320;2022-11-11T09:19:22;8.23;;;2.78;;
12867;SDS011;33517;49.866;8.320;2022-11-11T09:22:14;1.55;;;1.33;;
12867;SDS011;33517;49.866;8.320;2022-11-11T09:25:06;3.13;;;1.17;;
12867;SDS011;33517;49.866;8.320;2022-11-11T09:28:00;1.85;;;1.52;;
12867;SDS011;33517;49.866;8.320;2022-11-11T09:30:52;4.88;;;2.75;;
12867;SDS011;33517;49.866;8.320;2022-11-11T09:33:44;2.22;;;1.08;;
12867;SDS011;33517;49.866;8.320;2022-11-11T09:36:36;2.22;;;1.65;;
12867;SDS011;33517;49.866;8.320;2022-11-11T09:39:28;3.58;;;1.83;;
12867;SDS011;33517;49.866;8.320;2022-11-11T09:42:24;1.90;;;1.80;;
12867;SDS011;33517;49.866;8.320;2022-11-11T09:45:27;4.60;;;2.38;;
12867;SDS011;33517;49.866;8.320;2022-11-11T09:48:37;1.60;;;1.50;;
12867;SDS011;33517;49.866;8.320;2022-11-11T09:51:42;1.55;;;1.25;;
12867;SDS011;33517;49.866;8.320;2022-11-11T09:54:43;4.93;;;3.22;;
12867;SDS011;33517;49.866;8.320;2022-11-11T09:57:40;5.50;;;2.22;;
12867;SDS011;33517;49.866;8.320;2022-11-11T10:00:39;1.73;;;1.45;;
12867;SDS011;33517;49.866;8.320;2022-11-11T10:03:34;2.80;;;1.50;;
12867;SDS011;33517;49.866;8.320;2022-11-11T10:06:32;2.15;;;0.82;;
12867;SDS011;33517;49.866;8.320;2022-11-11T10:09:27;2.47;;;2.22;;
12867;SDS011;33517;49.866;8.320;2022-11-11T10:12:25;1.67;;;1.58;;
12867;SDS011;33517;49.866;8.320;2022-11-11T10:15:25;1.17;;;1.17;;
12867;SDS011;33517;49.866;8.320;2022-11-11T10:18:28;2.15;;;1.17;;
12867;SDS011;33517;49.866;8.320;2022-11-11T10:21:34;1.58;;;1.30;;
12867;SDS011;33517;49.866;8.320;2022-11-11T10:24:34;2.75;;;1.60;;
12867;SDS011;33517;49.866;8.320;2022-11-11T10:27:30;6.07;;;1.55;;
12867;SDS011;33517;49.866;8.320;2022-11-11T10:30:25;2.60;;;1.83;;
12867;SDS011;33517;49.866;8.320;2022-11-11T10:33:19;1.23;;;1.20;;
12867;SDS011;33517;49.866;8.320;2022-11-11T10:36:17;1.52;;;1.42;;
12867;SDS011;33517;49.866;8.320;2022-11-11T10:39:12;2.72;;;1.80;;
12867;SDS011;33517;49.866;8.320;2022-11-11T10:42:12;3.28;;;2.35;;
12867;SDS011;33517;49.866;8.320;2022-11-11T10:45:11;2.72;;;2.35;;
12867;SDS011;33517;49.866;8.320;2022-11-11T10:48:13;1.90;;;1.65;;
12867;SDS011;33517;49.866;8.320;2022-11-11T10:51:10;2.67;;;1.77;;
12867;SDS011;33517;49.866;8.320;2022-11-11T10:54:05;3.33;;;2.15;;
12867;SDS011;33517;49.866;8.320;2022-11-11T10:57:03;1.85;;;1.50;;
12867;SDS011;33517;49.866;8.320;2022-11-11T11:00:04;2.58;;;2.38;;
12867;SDS011;33517;49.866;8.320;2022-11-11T11:03:00;3.42;;;1.77;;
12867;SDS011;33517;49.866;8.320;2022-11-11T11:06:02;7.93;;;1.92;;
12867;SDS011;33517;49.866;8.320;2022-11-11T11:09:02;5.40;;;2.25;;
12867;SDS011;33517;49.866;8.320;2022-11-11T11:12:04;2.80;;;1.35;;
12867;SDS011;33517;49.866;8.320;2022-11-11T11:15:03;2.63;;;2.03;;
12867;SDS011;33517;49.866;8.320;2022-11-11T11:17:59;5.97;;;2.15;;
12867;SDS011;33517;49.866;8.320;2022-11-11T11:20:55;3.90;;;1.77;;
12867;SDS011;33517;49.866;8.320;2022-11-11T11:23:48;3.83;;;1.63;;
12867;SDS011;33517;49.866;8.320;2022-11-11T11:26:45;1.88;;;1.63;;
12867;SDS011;33517;49.866;8.320;2022-11-11T11:29:38;1.65;;;1.10;;
12867;SDS011;33517;49.866;8.320;2022-11-11T11:32:32;1.65;;;1.30;;
12867;SDS011;33517;49.866;8.320;2022-11-11T11:35:34;2.22;;;1.50;;
12867;SDS011;33517;49.866;8.320;2022-11-11T11:38:38;1.98;;;1.25;;
12867;SDS011;33517;49.866;8.320;2022-11-11T11:41:35;6.75;;;2.47;;
12867;SDS011;33517;49.866;8.320;2022-11-11T11:44:30;3.35;;;2.13;;
12867;SDS011;33517;49.866;8.320;2022-11-11T11:47:36;1.88;;;1.33;;
12867;SDS011;33517;49.866;8.320;2022-11-11T11:50:35;7.68;;;3.50;;
12867;SDS011;33517;49.866;8.320;2022-11-11T11:53:34;2.20;;;2.00;;
12867;SDS011;33517;49.866;8.320;2022-11-11T11:56:36;4.30;;;1.67;;
12867;SDS011;33517;49.866;8.320;2022-11-11T11:59:33;5.95;;;1.92;;
12867;SDS011;33517;49.866;8.320;2022-11-11T12:02:40;4.95;;;1.80;;
12867;SDS011;33517;49.866;8.320;2022-11-11T12:05:46;2.58;;;1.95;;
12867;SDS011;33517;49.866;8.320;2022-11-11T12:08:43;2.40;;;2.00;;
12867;SDS011;33517;49.866;8.320;2022-11-11T12:11:48;2.72;;;2.28;;
12867;SDS011;33517;49.866;8.320;2022-11-11T12:14:52;3.85;;;2.45;;
12867;SDS011;33517;49.866;8.320;2022-11-11T12:17:57;3.30;;;1.73;;
12867;SDS011;33517;49.866;8.320;2022-11-11T12:21:02;1.63;;;1.45;;
12867;SDS011;33517;49.866;8.320;2022-11-11T12:24:01;2.97;;;2.00;;
12867;SDS011;33517;49.866;8.320;2022-11-11T12:27:00;3.45;;;2.17;;
12867;SDS011;33517;49.866;8.320;2022-11-11T12:30:02;1.17;;;0.95;;
12867;SDS011;33517;49.866;8.320;2022-11-11T12:33:06;2.20;;;1.77;;
12867;SDS011;33517;49.866;8.320;2022-11-11T12:36:10;4.50;;;2.08;;
12867;SDS011;33517;49.866;8.320;2022-11-11T12:39:10;2.25;;;1.75;;
12867;SDS011;33517;49.866;8.320;2022-11-11T12:42:16;4.13;;;1.80;;
12867;SDS011;33517;49.866;8.320;2022-11-11T12:45:18;3.22;;;2.17;;
12867;SDS011;33517;49.866;8.320;2022-11-11T12:48:20;2.58;;;2.38;;
12867;SDS011;33517;49.866;8.320;2022-11-11T12:51:30;3.10;;;2.83;;
12867;SDS011;33517;49.866;8.320;2022-11-11T12:54:32;2.92;;;1.83;;
12867;SDS011;33517;49.866;8.320;2022-11-11T12:57:32;7.47;;;2.33;;
12867;SDS011;33517;49.866;8.320;2022-11-11T13:00:33;0.93;;;0.93;;
12867;SDS011;33517;49.866;8.320;2022-11-11T13:03:33;1.70;;;1.33;;
12867;SDS011;33517;49.866;8.320;2022-11-11T13:06:42;2.92;;;1.58;;
12867;SDS011;33517;49.866;8.320;2022-11-11T13:09:50;3.67;;;3.28;;
12867;SDS011;33517;49.866;8.320;2022-11-11T13:12:55;5.85;;;3.03;;
12867;SDS011;33517;49.866;8.320;2022-11-11T13:15:56;4.22;;;3.35;;
12867;SDS011;33517;49.866;8.320;2022-11-11T13:18:50;2.33;;;2.13;;
12867;SDS011;33517;49.866;8.320;2022-11-11T13:21:49;2.97;;;2.10;;
12867;SDS011;33517;49.866;8.320;2022-11-11T13:24:43;1.98;;;1.60;;
12867;SDS011;33517;49.866;8.320;2022-11-11T13:27:37;2.83;;;1.83;;
12867;SDS011;33517;49.866;8.320;2022-11-11T13:30:41;1.95;;;1.60;;
12867;SDS011;33517;49.866;8.320;2022-11-11T13:33:40;2.15;;;1.70;;
12867;SDS011;33517;49.866;8.320;2022-11-11T13:36:38;3.78;;;2.17;;
12867;SDS011;33517;49.866;8.320;2022-11-11T13:39:33;2.00;;;1.90;;
12867;SDS011;33517;49.866;8.320;2022-11-11T13:42:32;4.47;;;2.20;;
12867;SDS011;33517;49.866;8.320;2022-11-11T13:45:29;2.00;;;1.75;;
12867;SDS011;33517;49.866;8.320;2022-11-11T13:48:26;6.03;;;2.60;;
12867;SDS011;33517;49.866;8.320;2022-11-11T13:51:23;3.03;;;2.70;;
12867;SDS011;33517;49.866;8.320;2022-11-11T13:54:20;3.83;;;2.40;;
12867;SDS011;33517;49.866;8.320;2022-11-11T13:57:18;4.93;;;2.47;;
12867;SDS011;33517;49.866;8.320;2022-11-11T14:00:22;2.08;;;1.42;;
12867;SDS011;33517;49.866;8.320;2022-11-11T14:03:29;3.17;;;2.80;;
12867;SDS011;33517;49.866;8.320;2022-11-11T14:06:53;4.13;;;2.85;;
12867;SDS011;33517;49.866;8.320;2022-11-11T14:09:52;8.35;;;2.47;;
12867;SDS011;33517;49.866;8.320;2022-11-11T14:12:46;2.50;;;2.30;;
12867;SDS011;33517;49.866;8.320;2022-11-11T14:15:40;3.15;;;2.78;;
12867;SDS011;33517;49.866;8.320;2022-11-11T14:18:37;7.40;;;2.85;;
12867;SDS011;33517;49.866;8.320;2022-11-11T14:21:47;5.50;;;2.95;;
12867;SDS011;33517;49.866;8.320;2022-11-11T14:24:42;5.97;;;2.53;;
12867;SDS011;33517;49.866;8.320;2022-11-11T14:27:35;4.32;;;2.95;;
12867;SDS011;33517;49.866;8.320;2022-11-11T14:30:28;3.63;;;2.38;;
12867;SDS011;33517;49.866;8.320;2022-11-11T14:33:33;7.47;;;3.13;;
12867;SDS011;33517;49.866;8.320;2022-11-11T14:36:43;2.85;;;1.90;;
12867;SDS011;33517;49.866;8.320;2022-11-11T14:39:40;9.48;;;2.00;;
12867;SDS011;33517;49.866;8.320;2022-11-11T14:42:45;5.80;;;3.28;;
12867;SDS011;33517;49.866;8.320;2022-11-11T14:49:00;5.97;;;2.38;;
12867;SDS011;33517;49.866;8.320;2022-11-11T14:51:55;3.05;;;2.72;;
12867;SDS011;33517;49.866;8.320;2022-11-11T14:58:09;4.72;;;2.95;;
12867;SDS011;33517;49.866;8.320;2022-11-11T15:01:09;2.30;;;2.08;;
12867;SDS011;33517;49.866;8.320;2022-11-11T15:04:06;2.25;;;1.70;;
12867;SDS011;33517;49.866;8.320;2022-11-11T15:07:00;3.47;;;1.45;;
12867;SDS011;33517;49.866;8.320;2022-11-11T15:09:59;2.97;;;2.78;;
12867;SDS011;33517;49.866;8.320;2022-11-11T15:13:17;4.40;;;2.10;;
12867;SDS011;33517;49.866;8.320;2022-11-11T15:16:27;2.67;;;2.20;;
12867;SDS011;33517;49.866;8.320;2022-11-11T15:22:51;5.93;;;2.10;;
12867;SDS011;33517;49.866;8.320;2022-11-11T15:25:49;2.08;;;1.88;;
12867;SDS011;33517;49.866;8.320;2022-11-11T15:29:00;4.10;;;2.15;;
12867;SDS011;33517;49.866;8.320;2022-11-11T15:32:03;2.25;;;2.05;;
12867;SDS011;33517;49.866;8.320;2022-11-11T15:35:07;3.13;;;2.10;;
12867;SDS011;33517;49.866;8.320;2022-11-11T15:38:15;5.00;;;2.42;;
12867;SDS011;33517;49.866;8.320;2022-11-11T15:44:28;1.65;;;1.50;;
12867;SDS011;33517;49.866;8.320;2022-11-11T15:47:23;2.58;;;1.98;;
12867;SDS011;33517;49.866;8.320;2022-11-11T15:50:17;1.58;;;1.48;;
12867;SDS011;33517;49.866;8.320;2022-11-11T15:53:24;3.80;;;1.58;;
12867;SDS011;33517;49.866;8.320;2022-11-11T15:56:27;2.25;;;1.67;;
12867;SDS011;33517;49.866;8.320;2022-11-11T15:59:21;6.10;;;2.50;;
12867;SDS011;33517;49.866;8.320;2022-11-11T16:02:21;7.57;;;2.92;;
12867;SDS011;33517;49.866;8.320;2022-11-11T16:05:17;5.18;;;1.80;;
12867;SDS011;33517;49.866;8.320;2022-11-11T16:08:14;2.22;;;1.88;;
12867;SDS011;33517;49.866;8.320;2022-11-11T16:11:11;2.85;;;2.65;;
12867;SDS011;33517;49.866;8.320;2022-11-11T16:14:09;4.55;;;2.13;;
12867;SDS011;33517;49.866;8.320;2022-11-11T16:17:12;2.47;;;2.05;;
12867;SDS011;33517;49.866;8.320;2022-11-11T16:20:11;5.18;;;1.33;;
12867;SDS011;33517;49.866;8.320;2022-11-11T16:23:06;1.40;;;1.25;;
12867;SDS011;33517;49.866;8.320;2022-11-11T16:25:59;5.72;;;2.08;;
12867;SDS011;33517;49.866;8.320;2022-11-11T16:28:54;3.67;;;2.40;;
12867;SDS011;33517;49.866;8.320;2022-11-11T16:31:47;1.77;;;1.63;;
12867;SDS011;33517;49.866;8.320;2022-11-11T16:34:41;3.65;;;1.67;;
12867;SDS011;33517;49.866;8.320;2022-11-11T16:40:43;2.35;;;1.60;;
12867;SDS011;33517;49.866;8.320;2022-11-11T16:43:39;1.58;;;1.48;;
12867;SDS011;33517;49.866;8.320;2022-11-11T16:46:37;3.53;;;2.80;;
12867;SDS011;33517;49.866;8.320;2022-11-11T16:49:31;1.77;;;1.67;;
12867;SDS011;33517;49.866;8.320;2022-11-11T16:52:24;1.70;;;1.60;;
12867;SDS011;33517;49.866;8.320;2022-11-11T16:55:24;11.65;;;2.53;;
12867;SDS011;33517;49.866;8.320;2022-11-11T16:58:20;2.88;;;2.08;;
12867;SDS011;33517;49.866;8.320;2022-11-11T17:01:13;2.20;;;1.70;;
12867;SDS011;33517;49.866;8.320;2022-11-11T17:04:05;2.22;;;1.27;;
12867;SDS011;33517;49.866;8.320;2022-11-11T17:06:57;1.92;;;1.65;;
12867;SDS011;33517;49.866;8.320;2022-11-11T17:09:49;1.70;;;1.52;;
12867;SDS011;33517;49.866;8.320;2022-11-11T17:12:43;5.38;;;1.13;;
12867;SDS011;33517;49.866;8.320;2022-11-11T17:15:35;1.13;;;0.65;;
12867;SDS011;33517;49.866;8.320;2022-11-11T17:18:27;2.30;;;1.42;;
12867;SDS011;33517;49.866;8.320;2022-11-11T17:21:19;3.33;;;1.85;;
12867;SDS011;33517;49.866;8.320;2022-11-11T17:24:11;1.05;;;1.05;;
12867;SDS011;33517;49.866;8.320;2022-11-11T17:27:04;5.18;;;2.08;;
12867;SDS011;33517;49.866;8.320;2022-11-11T17:29:57;3.63;;;2.08;;
12867;SDS011;33517;49.866;8.320;2022-11-11T17:32:49;5.57;;;1.15;;
12867;SDS011;33517;49.866;8.320;2022-11-11T17:35:48;4.40;;;2.10;;
12867;SDS011;33517;49.866;8.320;2022-11-11T17:38:40;3.20;;;2.25;;
12867;SDS011;33517;49.866;8.320;2022-11-11T17:41:32;4.03;;;2.85;;
12867;SDS011;33517;49.866;8.320;2022-11-11T17:44:24;5.53;;;2.55;;
12867;SDS011;33517;49.866;8.320;2022-11-11T17:47:17;3.28;;;1.77;;
12867;SDS011;33517;49.866;8.320;2022-11-11T17:50:09;7.28;;;1.98;;
12867;SDS011;33517;49.866;8.320;2022-11-11T17:53:01;1.38;;;1.27;;
12867;SDS011;33517;49.866;8.320;2022-11-11T17:55:53;5.88;;;2.42;;
12867;SDS011;33517;49.866;8.320;2022-11-11T17:58:51;3.92;;;2.03;;
12867;SDS011;33517;49.866;8.320;2022-11-11T18:01:42;1.55;;;1.45;;
12867;SDS011;33517;49.866;8.320;2022-11-11T18:04:36;4.18;;;1.50;;